DW7067 Weather Reports


time (UTC)temp
C
wind
direction
speed
KPH
gust
KPH
rain 1hr
cm
rain 24hr
cm
rain mn
cm
humidity
%
barometer
mb
20190616173006 18 201 1.6 8.0 0.00 3.15 2.08 97 1011.7
20190616172006 18 191 1.6 3.2 0.00 3.15 2.08 97 1011.6
20190616171005 18 191 0.0 4.8 0.00 3.15 2.08 97 1011.6
20190616165005 19 0 0.0 3.2 0.00 3.15 2.08 100 1011.5
20190616163006 18 195 1.6 11.3 0.00 3.15 2.08 99 1011.6
20190616155005 18 0 0.0 1.6 0.00 3.15 2.08 99 1011.1
20190616154005 18 0 0.0 1.6 0.00 3.15 2.08 99 1011.0
20190616153005 18 0 0.0 1.6 0.00 3.15 2.08 99 1011.0
20190616152005 18 0 0.0 4.8 0.00 3.15 2.08 99 1011.0
20190616151006 17 229 1.6 3.2 0.00 3.15 2.08 99 1011.0
20190616145006 17 227 0.0 6.4 0.03 3.15 2.08 99 1010.7
20190616144006 17 227 1.6 3.2 0.03 3.15 2.08 99 1010.7
20190616143007 17 227 1.6 8.0 0.03 3.15 2.08 99 1010.7
20190616142005 17 227 0.0 6.4 0.03 3.15 2.08 99 1010.6
20190616135006 17 227 0.0 8.0 0.00 3.12 2.06 99 1010.5
20190616133005 17 220 1.6 9.7 0.00 3.12 2.06 99 1010.4
20190616130005 17 195 3.2 9.7 0.03 3.12 2.06 99 1010.4
20190616125006 16 167 1.6 14.5 0.08 3.12 2.06 99 1010.4
20190616122005 16 0 0.0 3.2 0.13 3.12 2.06 99 1010.2
20190616121007 16 0 0.0 1.6 0.10 3.10 2.03 99 1010.3
20190616120006 16 0 0.0 4.8 0.10 3.10 2.03 99 1010.4
20190616115007 16 0 0.0 3.2 0.08 3.05 1.98 99 1010.5
20190616113006 16 167 1.6 4.8 0.03 3.00 1.93 99 1010.6
20190616112005 16 178 0.0 11.3 0.03 3.00 1.93 99 1010.7
20190616111006 16 0 0.0 3.2 0.03 3.00 1.93 99 1010.7
20190616110005 16 0 0.0 3.2 0.03 3.00 1.93 99 1010.6
20190616105005 16 222 0.0 6.4 0.03 2.97 1.91 99 1010.8
20190616103006 16 0 0.0 6.4 0.03 2.97 1.91 99 1011.0
20190616102006 16 0 0.0 3.2 0.05 2.97 1.91 99 1011.1
20190616100007 16 0 0.0 1.6 0.23 2.97 1.91 99 1011.2
20190616095006 16 0 0.0 0.0 0.28 2.95 1.88 100 1011.2
20190616093005 16 0 0.0 1.6 0.38 2.95 1.88 100 1011.5
20190616092005 16 0 0.0 0.0 0.46 2.92 1.85 99 1011.5
20190616085005 16 0 0.0 0.0 0.41 2.67 1.60 100 1011.6
20190616074006 15 0 0.0 0.0 0.38 2.13 1.07 100 1012.6
20190616073005 15 0 0.0 0.0 0.30 2.01 0.94 100 1012.7
20190616072005 15 0 0.0 0.0 0.23 1.91 0.84 100 1012.9
20190616071005 15 0 0.0 0.0 0.20 1.83 0.76 100 1013.0
20190616065005 15 0 0.0 0.0 0.33 1.78 0.71 100 1013.1
20190616064004 15 0 0.0 0.0 0.30 1.75 0.69 100 1013.3
20190616063004 16 0 0.0 0.0 0.38 1.70 0.64 100 1013.5
20190616062004 16 0 0.0 0.0 0.33 1.65 0.58 100 1013.7
20190616061005 15 0 0.0 0.0 0.36 1.60 0.53 100 1013.8
20190616053005 15 0 0.0 0.0 0.18 1.32 0.25 100 1013.9
20190616052005 16 0 0.0 0.0 0.18 1.32 0.25 100 1014.0
20190616051005 16 0 0.0 0.0 0.10 1.24 0.18 100 1014.2
20190616050014 16 0 0.0 0.0 0.10 1.17 0.10 100 1014.1
20190616044015 16 222 1.6 6.4 0.13 1.14 0.08 100 1014.2
20190616043014 16 0 0.0 6.4 0.13 1.14 0.08 97 1014.2
20190616040015 15 0 0.0 3.2 0.08 1.07 0.00 97 1014.4
20190616035014 15 0 0.0 0.0 0.15 1.02 1.02 97 1014.3
20190616032013 16 0 0.0 0.0 0.51 1.02 1.02 97 1014.4
20190616031013 16 0 0.0 1.6 0.51 0.99 0.99 97 1014.6
20190616025013 16 0 0.0 3.2 0.41 0.84 0.84 97 1014.8
20190616023014 16 0 0.0 0.0 0.28 0.64 0.64 96 1014.9
20190616022014 16 0 0.0 6.4 0.20 0.51 0.51 96 1014.8
20190616021013 16 0 0.0 3.2 0.23 0.48 0.48 96 1014.9
20190616020014 16 222 1.6 1.6 0.25 0.46 0.46 96 1014.9
20190616014014 16 265 1.6 8.0 0.25 0.38 0.41 96 1014.8
20190616013013 16 265 1.6 9.7 0.25 0.36 0.36 96 1014.8
20190616012013 16 0 0.0 4.8 0.23 0.30 0.30 95 1014.7
20190616011013 16 0 0.0 3.2 0.18 0.25 0.25 95 1014.8
20190616010013 16 0 0.0 1.6 0.15 0.20 0.20 95 1014.7
20190616005013 16 0 0.0 1.6 0.13 0.18 0.18 94 1014.5
20190616004014 16 0 0.0 0.0 0.08 0.13 0.13 94 1014.2
20190616003013 16 265 1.6 3.2 0.05 0.10 0.10 94 1014.1
20190616002013 16 265 1.6 9.7 0.03 0.08 0.08 94 1014.1
20190616000013 16 0 0.0 4.8 0.00 0.05 0.05 94 1014.2
20190615235013 16 0 0.0 4.8 0.00 0.05 0.05 94 1014.3
20190615234015 16 265 1.6 4.8 0.00 0.05 0.05 93 1014.4
20190615232013 16 0 0.0 4.8 0.00 0.05 0.05 93 1014.5
20190615230013 16 265 0.0 9.7 0.03 0.05 0.05 92 1014.9
20190615225015 17 265 1.6 4.8 0.03 0.05 0.05 92 1015.0
20190615222013 17 0 0.0 3.2 0.03 0.05 0.05 91 1015.2
20190615215014 17 0 0.0 1.6 0.03 0.03 0.03 89 1015.5
20190615214013 17 0 0.0 1.6 0.03 0.03 0.03 88 1015.3
20190615213013 17 0 0.0 6.4 0.03 0.03 0.03 86 1015.2
20190615212013 18 266 0.0 3.2 0.03 0.03 0.03 85 1015.2
20190615211013 18 236 1.6 11.3 0.00 0.00 0.00 83 1015.3
20190615205014 18 174 3.2 8.0 0.00 0.00 0.00 81 1015.2
20190615204012 18 293 1.6 6.4 0.00 0.00 0.00 81 1015.2
20190615203013 18 335 0.0 4.8 0.00 0.00 0.00 80 1015.0
20190615202013 19 334 1.6 6.4 0.00 0.00 0.00 80 1015.1
20190615201013 19 309 1.6 8.0 0.00 0.00 0.00 75 1015.1
20190615195013 19 269 1.6 8.0 0.00 0.00 0.00 72 1015.2
20190615193013 19 269 1.6 6.4 0.00 0.00 0.00 71 1015.3
20190615192013 18 231 3.2 9.7 0.00 0.00 0.00 70 1015.4
20190615184012 18 211 3.2 8.0 0.00 0.00 0.00 72 1015.8
20190615183012 18 188 4.8 12.9 0.00 0.00 0.00 72 1015.8
20190615181013 17 243 3.2 12.9 0.00 0.00 0.00 72 1015.9
20190615180013 17 218 1.6 9.7 0.00 0.00 0.00 73 1016.0
20190615175013 17 225 3.2 8.0 0.00 0.00 0.00 73 1015.9